Dale, South Carolina
Current Conditions -  °F | °C
As of 3:56 PM on Friday 24 Oct 2014 (Local Time) from KNBC Reporting Station
Clear Clear  
Wind Chill: 74°   Ceiling: Unl
Heat Index: 74°   Visibility: 10mi
Dew Point: 43°   Wind: 0mph
Humidity: 33%   Direction: NA
Pressure: 29.98"   Gusts: NA
Location:  32.56°N, 80.69°W
Report Text: KNBC 241956Z 00000KT 10SM CLR 23/06 A2998 RMK AO2 SLP153 T02330061 $
Loading
Personal Weather Stations






























Interactive Weather Map
Tropical Storm Tracking
New forecast layout! Learn more

10-Day Weather Forecast

Advertisements
Track Severe Weather on mobile